createdAt,value
2023-01-11T00:01:15.930Z,10.6
2023-01-11T00:04:03.509Z,10.6
2023-01-11T00:06:51.811Z,10.5
2023-01-11T00:09:39.072Z,10.4
2023-01-11T00:12:26.479Z,10.2
2023-01-11T00:15:13.908Z,10
2023-01-11T00:18:01.425Z,10
2023-01-11T00:20:49.205Z,10.7
2023-01-11T00:23:36.492Z,12.3
2023-01-11T00:26:23.948Z,12.1
2023-01-11T00:29:11.399Z,10.8
2023-01-11T00:31:58.651Z,9.6
2023-01-11T00:34:46.032Z,10.3
2023-01-11T00:37:33.238Z,12.5
2023-01-11T00:40:20.634Z,11.9
2023-01-11T00:43:08.614Z,10.5
2023-01-11T00:46:27.593Z,9.1
2023-01-11T00:49:46.605Z,10.7
2023-01-11T00:52:33.938Z,11.4
2023-01-11T00:55:21.232Z,10.9
2023-01-11T00:58:09.033Z,9.7
2023-01-11T01:00:56.361Z,9.2
2023-01-11T01:03:50.496Z,9.7
2023-01-11T01:06:37.897Z,10.1
2023-01-11T01:09:25.361Z,10.6
2023-01-11T01:12:13.231Z,11.5
2023-01-11T01:17:10.393Z,9.7
2023-01-11T01:19:57.660Z,8.8
2023-01-11T01:22:45.020Z,9.6
2023-01-11T01:25:32.324Z,10.8
2023-01-11T01:28:22.471Z,11.6
2023-01-11T01:31:09.747Z,10.5
2023-01-11T01:33:57.294Z,9.3
2023-01-11T01:36:44.678Z,9.5
2023-01-11T01:39:31.946Z,10.7
2023-01-11T01:42:19.742Z,11.5
2023-01-11T01:45:08.775Z,10.1
2023-01-11T01:48:08.273Z,8.9
2023-01-11T01:51:00.517Z,9.3
2023-01-11T01:53:50.476Z,10.8
2023-01-11T01:56:41.401Z,11.2
2023-01-11T01:59:33.953Z,10.1
2023-01-11T02:02:21.682Z,8.8
2023-01-11T02:05:11.241Z,9.1
2023-01-11T02:08:00.716Z,10.9
2023-01-11T02:10:55.091Z,10.9
2023-01-11T02:13:42.980Z,9.6
2023-01-11T02:16:30.492Z,8.4
2023-01-11T02:19:18.710Z,9.1
2023-01-11T02:22:24.445Z,11
2023-01-11T02:25:35.464Z,10.7
2023-01-11T02:29:13.484Z,8.9
2023-01-11T02:32:14.997Z,8.8
2023-01-11T02:35:11.772Z,10.3
2023-01-11T02:38:06.409Z,11.1
2023-01-11T02:41:01.803Z,9.8
2023-01-11T02:44:00.161Z,8.3
2023-01-11T02:47:27.726Z,9.2
2023-01-11T02:50:24.392Z,10.9
2023-01-11T02:53:15.985Z,10.6
2023-01-11T02:56:10.196Z,9.3
2023-01-11T02:59:01.854Z,8.1
2023-01-11T03:01:53.235Z,8.7
2023-01-11T03:04:40.621Z,10.7
2023-01-11T03:07:28.565Z,10.7
2023-01-11T03:10:31.967Z,9.3
2023-01-11T03:13:31.361Z,8.1
2023-01-11T03:16:34.712Z,8.9
2023-01-11T03:19:29.608Z,10.8
2023-01-11T03:22:23.699Z,10.5
2023-01-11T03:25:18.268Z,9.1
2023-01-11T03:28:13.887Z,7.9
2023-01-11T03:31:10.661Z,8.6
2023-01-11T03:34:05.627Z,10.6
2023-01-11T03:37:02.484Z,10.3
2023-01-11T03:39:53.995Z,9
2023-01-11T03:42:48.739Z,7.8
2023-01-11T03:45:58.024Z,8.8
2023-01-11T03:48:50.360Z,10.6
2023-01-11T03:51:42.478Z,9.9
2023-01-11T03:54:31.265Z,8.5
2023-01-11T03:57:19.252Z,7.6
2023-01-11T04:00:11.045Z,9.2
2023-01-11T04:02:58.833Z,10.3
2023-01-11T04:05:46.517Z,9.4
2023-01-11T04:08:38.215Z,8.2
2023-01-11T04:11:25.488Z,7.3
2023-01-11T04:14:12.784Z,8.6
2023-01-11T04:17:00.152Z,10.1
2023-01-11T04:19:47.884Z,9.4
2023-01-11T04:22:35.236Z,8.2
2023-01-11T04:25:22.575Z,7.3
2023-01-11T04:28:09.931Z,8.5
2023-01-11T04:30:57.278Z,10
2023-01-11T04:33:44.604Z,9.6
2023-01-11T04:36:31.892Z,8.2
2023-01-11T04:39:19.348Z,7.8
2023-01-11T04:42:06.894Z,9.1
2023-01-11T04:45:04.187Z,9.8
2023-01-11T04:47:52.733Z,8.6
2023-01-11T04:50:40.908Z,7.6
2023-01-11T04:53:28.213Z,7.7
2023-01-11T04:56:15.681Z,9.1
2023-01-11T04:59:03.923Z,10
2023-01-11T05:01:51.963Z,8.5
2023-01-11T05:04:39.184Z,7.6
2023-01-11T05:07:26.552Z,8.4
2023-01-11T05:10:14.468Z,9.7
2023-01-11T05:13:02.161Z,8.9
2023-01-11T05:15:49.524Z,7.7
2023-01-11T05:18:36.782Z,7.2
2023-01-11T05:21:24.959Z,8.6
2023-01-11T05:24:15.764Z,9.6
2023-01-11T05:27:03.170Z,8.5
2023-01-11T05:29:51.527Z,7.4
2023-01-11T05:32:38.724Z,7.7
2023-01-11T05:35:26.093Z,9.1
2023-01-11T05:38:13.341Z,9.1
2023-01-11T05:41:00.751Z,7.8
2023-01-11T05:43:51.059Z,7.4
2023-01-11T05:47:11.757Z,9.1
2023-01-11T05:49:58.984Z,8.9
2023-01-11T05:52:46.271Z,7.7
2023-01-11T05:55:33.517Z,6.9
2023-01-11T05:58:20.913Z,8
2023-01-11T06:01:10.404Z,9.2
2023-01-11T06:03:57.986Z,8.9
2023-01-11T06:06:45.336Z,7.9
2023-01-11T06:09:32.595Z,6.9
2023-01-11T06:12:20.377Z,7.7
2023-01-11T06:15:07.664Z,9.4
2023-01-11T06:17:55.344Z,9.1
2023-01-11T06:20:42.639Z,7.7
2023-01-11T06:23:34.007Z,7
2023-01-11T06:26:23.083Z,8.5
2023-01-11T06:29:10.391Z,8.8
2023-01-11T06:31:59.180Z,7.7
2023-01-11T06:34:46.369Z,7
2023-01-11T06:37:33.833Z,8.5
2023-01-11T06:40:21.009Z,8.5
2023-01-11T06:43:08.403Z,7.6
2023-01-11T06:45:55.829Z,6.9
2023-01-11T06:48:43.909Z,8.2
2023-01-11T06:51:31.727Z,9
2023-01-11T06:54:19.082Z,8
2023-01-11T06:57:10.099Z,7.2
2023-01-11T06:59:57.519Z,6.9
2023-01-11T07:02:45.210Z,8.6
2023-01-11T07:05:34.331Z,8.9
2023-01-11T07:08:22.135Z,7.8
2023-01-11T07:11:10.097Z,6.9
2023-01-11T07:13:58.047Z,7.2
2023-01-11T07:16:45.468Z,8.7
2023-01-11T07:19:32.889Z,8.5
2023-01-11T07:22:20.281Z,7.7
2023-01-11T07:25:08.219Z,6.8
2023-01-11T07:27:55.589Z,7.4
2023-01-11T07:30:57.386Z,9.4
2023-01-11T07:33:45.856Z,8.6
2023-01-11T07:36:33.125Z,7.6
2023-01-11T07:39:34.911Z,6.8
2023-01-11T07:42:29.729Z,6.9
2023-01-11T07:45:48.569Z,8.9
2023-01-11T07:48:37.226Z,9.2
2023-01-11T07:51:24.565Z,8
2023-01-11T07:54:11.924Z,7
2023-01-11T07:56:59.379Z,7.7
2023-01-11T07:59:46.799Z,9.1
2023-01-11T08:02:34.158Z,8.3
2023-01-11T08:05:21.754Z,7.5
2023-01-11T08:08:09.125Z,6.8
2023-01-11T08:10:56.572Z,8
2023-01-11T08:14:16.040Z,8.9
2023-01-11T08:17:35.013Z,7.8
2023-01-11T08:20:23.127Z,6.9
2023-01-11T08:23:11.728Z,7.8
2023-01-11T08:25:59.100Z,9.3
2023-01-11T08:28:46.382Z,8.7
2023-01-11T08:31:34.471Z,7.9
2023-01-11T08:34:21.805Z,7
2023-01-11T08:37:10.224Z,8.3
2023-01-11T08:39:57.523Z,9
2023-01-11T08:42:44.908Z,8.2
2023-01-11T08:45:32.244Z,7.3
2023-01-11T08:48:19.633Z,7.5
2023-01-11T08:51:06.873Z,9.1
2023-01-11T08:53:54.926Z,8.8
2023-01-11T08:56:42.350Z,8
2023-01-11T08:59:29.734Z,7.1
2023-01-11T09:02:16.984Z,7.8
2023-01-11T09:05:04.506Z,9.5
2023-01-11T09:07:52.876Z,9
2023-01-11T09:10:40.284Z,8
2023-01-11T09:13:27.632Z,7.3
2023-01-11T09:16:15.239Z,8.5
2023-01-11T09:19:02.985Z,9.3
2023-01-11T09:21:50.975Z,8.5
2023-01-11T09:24:42.228Z,7.6
2023-01-11T09:27:29.649Z,7.1
2023-01-11T09:30:17.174Z,8.5
2023-01-11T09:33:06.343Z,9.2
2023-01-11T09:35:53.982Z,8.4
2023-01-11T09:38:43.277Z,7.7
2023-01-11T09:41:30.689Z,7.5
2023-01-11T09:44:31.129Z,9.1
2023-01-11T09:47:21.631Z,9.2
2023-01-11T09:50:18.206Z,8.5
2023-01-11T09:53:10.025Z,7.7
2023-01-11T09:56:05.544Z,7.8
2023-01-11T09:58:59.189Z,9.4
2023-01-11T10:01:59.633Z,9.3
2023-01-11T10:04:56.331Z,8.3
2023-01-11T10:18:31.013Z,8.9
2023-01-11T10:21:45.981Z,7.7
2023-01-11T10:24:39.173Z,8.1
2023-01-11T10:27:31.573Z,10
2023-01-11T10:30:23.615Z,9.6
2023-01-11T10:33:32.971Z,8.7
2023-01-11T10:36:36.762Z,8
2023-01-11T10:39:47.671Z,7.6
2023-01-11T10:43:03.608Z,9.5
2023-01-11T10:46:01.527Z,9.6
2023-01-11T10:48:56.326Z,8.9
2023-01-11T10:52:04.131Z,8.2
2023-01-11T10:55:06.902Z,7.9
2023-01-11T10:57:59.847Z,9.4
2023-01-11T11:01:02.973Z,9.8
2023-01-11T11:04:01.682Z,9
2023-01-11T11:07:08.896Z,8.1
2023-01-11T11:10:03.439Z,7.8
2023-01-11T11:12:59.433Z,9.3
2023-01-11T11:15:56.340Z,9.6
2023-01-11T11:18:49.916Z,9
2023-01-11T11:21:40.493Z,8.2
2023-01-11T11:24:28.490Z,7.7
2023-01-11T11:27:22.310Z,8.6
2023-01-11T11:30:13.780Z,10.2
2023-01-11T11:33:13.202Z,9.5
2023-01-11T11:36:05.907Z,8.7
2023-01-11T11:38:56.277Z,8
2023-01-11T11:41:54.117Z,8
2023-01-11T11:44:49.352Z,10.1
2023-01-11T11:48:08.325Z,10
2023-01-11T11:50:55.760Z,9.1
2023-01-11T11:53:46.081Z,8.4
2023-01-11T11:56:37.991Z,7.9
2023-01-11T11:59:26.348Z,8.3
2023-01-11T12:02:17.795Z,10.3
2023-01-11T12:05:10.800Z,10.2
2023-01-11T12:07:58.179Z,9.3
2023-01-11T12:10:45.865Z,8.6
2023-01-11T12:13:35.992Z,8
2023-01-11T12:16:27.076Z,8.6
2023-01-11T12:19:19.458Z,10.5
2023-01-11T12:22:14.283Z,10.1
2023-01-11T12:25:05.373Z,9.3
2023-01-11T12:28:06.327Z,8.5
2023-01-11T12:31:02.131Z,8.1
2023-01-11T12:34:00.036Z,10.1
2023-01-11T12:37:01.662Z,10.3
2023-01-11T12:39:58.183Z,9.6
2023-01-11T12:42:58.393Z,8.9
2023-01-11T12:46:05.969Z,8.3
2023-01-11T12:49:06.126Z,9.4
2023-01-11T12:52:09.638Z,11
2023-01-11T12:55:29.465Z,9.9
2023-01-11T12:58:32.075Z,9.2
2023-01-11T13:01:25.123Z,8.6
2023-01-11T13:04:22.245Z,9.4
2023-01-11T13:07:32.516Z,11
2023-01-11T13:10:33.446Z,10.3
2023-01-11T13:13:29.197Z,9.5
2023-01-11T13:16:26.855Z,8.8
2023-01-11T13:19:23.140Z,8.8
2023-01-11T13:22:17.274Z,9.9
2023-01-11T13:25:07.498Z,10.4
2023-01-11T13:28:01.793Z,9.8
2023-01-11T13:31:01.820Z,8.9
2023-01-11T13:33:52.632Z,8.8
2023-01-11T13:36:46.096Z,10
2023-01-11T13:39:38.756Z,10.1
2023-01-11T13:42:31.588Z,9.4
2023-01-11T13:45:23.730Z,8.8
2023-01-11T13:48:16.907Z,9
2023-01-11T13:51:11.523Z,10.4
2023-01-11T13:54:07.269Z,10.7
2023-01-11T13:57:01.476Z,9.9
2023-01-11T13:59:56.005Z,9
2023-01-11T14:02:52.547Z,8.8
2023-01-11T14:05:48.562Z,10.4
2023-01-11T14:08:47.294Z,10.6
2023-01-11T14:11:50.219Z,9.9
2023-01-11T14:14:45.645Z,9
2023-01-11T14:17:52.958Z,8.9
2023-01-11T14:20:56.394Z,10.3
2023-01-11T14:23:53.427Z,10.6
2023-01-11T14:26:42.233Z,9.7
2023-01-11T14:29:45.046Z,8.9
2023-01-11T14:33:02.180Z,8.6
2023-01-11T14:36:11.875Z,10.1
2023-01-11T14:39:36.547Z,10.6
2023-01-11T14:42:59.343Z,9.7
2023-01-11T14:46:27.490Z,8.8
2023-01-11T14:49:35.778Z,9.3
2023-01-11T14:52:42.581Z,10.9
2023-01-11T14:55:33.232Z,10.8
2023-01-11T14:58:30.047Z,9.9
2023-01-11T15:01:17.982Z,9.2
2023-01-11T15:04:05.628Z,8.7
2023-01-11T15:07:06.609Z,10.1
2023-01-11T15:10:08.638Z,10.5
2023-01-11T15:13:34.545Z,9.6
2023-01-11T15:16:29.489Z,8.9
2023-01-11T15:19:50.746Z,9.2
2023-01-11T15:22:38.523Z,10.7
2023-01-11T15:25:27.252Z,10.5
2023-01-11T15:28:16.399Z,9.6
2023-01-11T15:31:29.292Z,8.8
2023-01-11T15:34:23.440Z,8.5
2023-01-11T15:37:12.874Z,10.3
2023-01-11T15:40:20.981Z,10.7
2023-01-11T15:43:11.563Z,10
2023-01-11T15:46:34.887Z,9
2023-01-11T15:49:46.053Z,8.7
2023-01-11T15:53:19.695Z,10.3
2023-01-11T15:56:51.077Z,10.2
2023-01-11T16:00:25.746Z,9.3
2023-01-11T16:03:52.672Z,8.9
2023-01-11T16:06:46.353Z,10.3
2023-01-11T16:09:41.031Z,10.6
2023-01-11T16:12:46.101Z,9.8
2023-01-11T16:15:49.832Z,9
2023-01-11T16:18:51.103Z,9.5
2023-01-11T16:21:41.816Z,11.1
2023-01-11T16:24:32.446Z,10.6
2023-01-11T16:27:29.441Z,9.8
2023-01-11T16:30:19.695Z,9.1
2023-01-11T16:33:08.237Z,9.7
2023-01-11T16:36:00.286Z,11.3
2023-01-11T16:38:54.545Z,11.2
2023-01-11T16:41:47.861Z,10.4
2023-01-11T16:44:40.628Z,9.5
2023-01-11T16:47:34.602Z,9.2
2023-01-11T16:50:22.686Z,10.5
2023-01-11T16:53:10.576Z,11.1
2023-01-11T16:55:59.593Z,10.4
2023-01-11T16:58:50.571Z,9.6
2023-01-11T17:01:51.491Z,9.5
2023-01-11T17:04:40.853Z,11
2023-01-11T17:07:35.769Z,11.5
2023-01-11T17:10:23.286Z,10.8
2023-01-11T17:13:14.012Z,9.7
2023-01-11T17:16:37.130Z,10.3
2023-01-11T17:19:26.765Z,11.6
2023-01-11T17:22:16.737Z,13
2023-01-11T17:25:07.508Z,12
2023-01-11T17:28:04.455Z,10.9
2023-01-11T17:30:59.695Z,11.3
2023-01-11T17:33:47.866Z,12.4
2023-01-11T17:36:45.726Z,12.6
2023-01-11T17:39:34.254Z,11.6
2023-01-11T17:42:24.703Z,10.6
2023-01-11T17:45:44.090Z,11.5
2023-01-11T17:48:34.514Z,12.9
2023-01-11T17:51:21.799Z,12.7
2023-01-11T17:54:11.131Z,11.6
2023-01-11T17:57:05.627Z,10.7
2023-01-11T17:59:54.781Z,11.3
2023-01-11T18:03:14.344Z,12.7
2023-01-11T18:06:03.813Z,12.7
2023-01-11T18:08:57.240Z,11.4
2023-01-11T18:11:46.475Z,11.3
2023-01-11T18:14:36.008Z,12.1
2023-01-11T18:17:25.919Z,13
2023-01-11T18:20:20.994Z,12.5
2023-01-11T18:23:24.839Z,11.2
2023-01-11T18:26:12.245Z,11.2
2023-01-11T18:29:16.493Z,12
2023-01-11T18:32:06.008Z,12.6
2023-01-11T18:34:55.829Z,13.1
2023-01-11T18:37:44.062Z,12.5
2023-01-11T18:40:31.525Z,11.2
2023-01-11T18:43:18.744Z,12
2023-01-11T18:46:10.692Z,12.6
2023-01-11T18:48:57.991Z,13
2023-01-11T18:51:45.401Z,13.4
2023-01-11T18:54:32.778Z,12.3
2023-01-11T18:57:20.522Z,11.3
2023-01-11T19:00:08.911Z,12.1
2023-01-11T19:03:01.386Z,12.8
2023-01-11T19:05:50.693Z,13
2023-01-11T19:08:38.817Z,13.5
2023-01-11T19:11:26.183Z,13.3
2023-01-11T19:14:15.513Z,11.9
2023-01-11T19:17:03.191Z,11.7
2023-01-11T19:19:51.474Z,12.7
2023-01-11T19:22:38.727Z,13.7
2023-01-11T19:25:26.570Z,13.4
2023-01-11T19:28:14.081Z,11.8
2023-01-11T19:31:01.421Z,12.1
2023-01-11T19:33:52.053Z,13
2023-01-11T19:36:39.469Z,13.6
2023-01-11T19:39:26.896Z,13.4
2023-01-11T19:42:14.289Z,11.9
2023-01-11T19:45:01.527Z,11.7
2023-01-11T19:47:49.694Z,12.4
2023-01-11T19:50:36.903Z,13.4
2023-01-11T19:53:24.156Z,14
2023-01-11T19:56:13.818Z,13.3
2023-01-11T19:59:01.103Z,12
2023-01-11T20:01:48.458Z,12.1
2023-01-11T20:04:36.167Z,13.1
2023-01-11T20:07:24.523Z,13.5
2023-01-11T20:10:12.440Z,14.1
2023-01-11T20:12:59.721Z,13.4
2023-01-11T20:15:47.151Z,12.2
2023-01-11T20:18:35.397Z,12.9
2023-01-11T20:21:23.075Z,14.5
2023-01-11T20:24:13.743Z,13.5
2023-01-11T20:27:01.410Z,12.4
2023-01-11T20:29:48.963Z,12.5
2023-01-11T20:32:41.948Z,13.6
2023-01-11T20:35:29.744Z,14.6
2023-01-11T20:38:17.035Z,13.4
2023-01-11T20:41:05.028Z,12.1
2023-01-11T20:43:55.929Z,13.1
2023-01-11T20:46:46.334Z,14.3
2023-01-11T20:49:36.261Z,13.6
2023-01-11T20:52:24.385Z,12.1
2023-01-11T20:55:11.786Z,12.9
2023-01-11T20:57:58.980Z,14.8
2023-01-11T21:00:46.346Z,14.5
2023-01-11T21:03:33.694Z,13
2023-01-11T21:06:21.955Z,12.7
2023-01-11T21:09:09.262Z,14.5
2023-01-11T21:12:00.201Z,14.3
2023-01-11T21:14:47.606Z,12.7
2023-01-11T21:17:35.113Z,12.9
2023-01-11T21:20:22.941Z,14.5
2023-01-11T21:23:10.309Z,14.7
2023-01-11T21:25:59.996Z,13.1
2023-01-11T21:28:49.430Z,12.7
2023-01-11T21:31:38.327Z,14.3
2023-01-11T21:34:26.556Z,14.6
2023-01-11T21:37:13.887Z,13.2
2023-01-11T21:40:01.164Z,12.3
2023-01-11T21:42:50.140Z,13.7
2023-01-11T21:45:37.408Z,14.7
2023-01-11T21:48:24.715Z,14
2023-01-11T21:51:12.613Z,12.5
2023-01-11T21:54:00.118Z,13.6
2023-01-11T21:56:50.272Z,15.2
2023-01-11T21:59:37.744Z,14.3
2023-01-11T22:02:25.008Z,12.6
2023-01-11T22:05:12.385Z,13.1
2023-01-11T22:07:59.924Z,14.6
2023-01-11T22:10:47.436Z,15.1
2023-01-11T22:13:42.315Z,13.8
2023-01-11T22:16:30.139Z,12.7
2023-01-11T22:19:18.932Z,13.8
2023-01-11T22:22:06.673Z,14.9
2023-01-11T22:24:55.751Z,14.9
2023-01-11T22:27:43.081Z,13.2
2023-01-11T22:30:30.474Z,13.1
2023-01-11T22:33:17.737Z,14.6
2023-01-11T22:36:05.300Z,15
2023-01-11T22:38:53.987Z,13.7
2023-01-11T22:41:41.748Z,12.8
2023-01-11T22:44:30.008Z,13.5
2023-01-11T22:47:17.462Z,14.5
2023-01-11T22:50:05.432Z,15
2023-01-11T22:52:54.646Z,14
2023-01-11T22:55:41.841Z,12.7
2023-01-11T22:58:29.287Z,13.5
2023-01-11T23:01:16.582Z,14.3
2023-01-11T23:04:05.891Z,15.2
2023-01-11T23:06:56.749Z,14.1
2023-01-11T23:09:44.016Z,12.9
2023-01-11T23:12:31.271Z,13.6
2023-01-11T23:15:50.297Z,14.8
2023-01-11T23:18:37.702Z,15.2
2023-01-11T23:21:24.984Z,14.4
2023-01-11T23:24:13.290Z,12.8
2023-01-11T23:27:01.908Z,13.1
2023-01-11T23:29:49.749Z,14.6
2023-01-11T23:32:37.133Z,15.4
2023-01-11T23:35:24.983Z,14
2023-01-11T23:38:12.261Z,13.5
2023-01-11T23:40:59.543Z,14.4
2023-01-11T23:46:07.272Z,14.2
2023-01-11T23:50:06.159Z,13.1
2023-01-11T23:52:54.607Z,14.1
2023-01-11T23:55:41.945Z,15.1
2023-01-11T23:58:29.330Z,14.7
